Orient Delivery — 5BNY3 — position and weather

sailwx.info

Track history (hours):
 
Tides and Currents Weather Stations Pressure Air Temp Water Temp Dewpoint Dewpoint Depression Visibility Wind Speed Wind Dir Waves Ship Positions

Orient Delivery

Last reported at 2017-Nov-19 13:38 UTC. Time now 2017-Nov-21 17:29 UTC.
Position N 31°54' W 079°56'.

Length 183 m; draft 6.1 m.

Type: Cargo ship. MMSI: 209745000.

Date/timePositionNaut miles runAvg speedWind from/ knotsBaromVisibWave heightAir tempDewpointWater temp
2017-Nov-19 13:38N 31°54' W 079°56'1 5.6
2017-Nov-19 13:26N 31°54' W 079°55'2 5.0
2017-Nov-19 13:00N 31°56' W 079°53'3 4.7
2017-Nov-19 12:29N 31°57' W 079°51'  
2017-Nov-16 14:14N 32°53' W 079°58'0 0.0
2017-Nov-16 13:59N 32°53' W 079°58'0 0.0
2017-Nov-16 13:29N 32°53' W 079°58'0 0.0
2017-Nov-16 12:59N 32°53' W 079°58'0 0.0
2017-Nov-16 12:29N 32°53' W 079°58'0 0.0
2017-Nov-16 11:29N 32°53' W 079°58'0 0.0
2017-Nov-16 10:59N 32°53' W 079°58'0 0.0
2017-Nov-16 10:26N 32°53' W 079°58'0 0.0
2017-Nov-16 09:56N 32°53' W 079°58'0 0.0
2017-Nov-16 09:26N 32°53' W 079°58'0 0.0
2017-Nov-16 08:59N 32°53' W 079°58'0 0.0
2017-Nov-16 08:29N 32°53' W 079°58'0 0.0
2017-Nov-16 07:59N 32°53' W 079°58'0 0.0
2017-Nov-16 07:29N 32°53' W 079°58'0 0.0
2017-Nov-16 06:59N 32°53' W 079°58'0 0.0
2017-Nov-16 06:29N 32°53' W 079°58'0 0.0
2017-Nov-16 05:59N 32°53' W 079°58'0 0.0
2017-Nov-16 05:29N 32°53' W 079°58'0 0.0
2017-Nov-16 04:59N 32°53' W 079°58'0 0.0
2017-Nov-16 04:29N 32°53' W 079°58'0 0.0
2017-Nov-16 03:59N 32°53' W 079°58'0 0.0
2017-Nov-16 03:29N 32°53' W 079°58'0 0.0
2017-Nov-16 02:59N 32°53' W 079°58'0 0.0
2017-Nov-16 02:29N 32°53' W 079°58'0 0.0
2017-Nov-16 01:59N 32°53' W 079°58'0 0.0
2017-Nov-16 01:26N 32°53' W 079°58'0 0.0
2017-Nov-16 00:59N 32°53' W 079°58'0 0.0
2017-Nov-15 20:50N 32°53' W 079°58'0 0.0
2017-Nov-15 20:29N 32°53' W 079°58'0 0.0
2017-Nov-15 19:59N 32°53' W 079°58'0 0.0
2017-Nov-15 19:29N 32°53' W 079°58'0 0.0
2017-Nov-15 18:59N 32°53' W 079°58'0 0.0
2017-Nov-15 18:29N 32°53' W 079°58'0 0.0
2017-Nov-15 17:59N 32°53' W 079°58'0 0.0
2017-Nov-15 17:29N 32°53' W 079°58'0 0.0
2017-Nov-15 17:00N 32°53' W 079°58'2 4.8
2017-Nov-15 16:30N 32°51' W 079°56'4 8.6
2017-Nov-15 16:00N 32°47' W 079°55'1811.0
2017-Nov-15 14:21N 32°37' W 079°36'3 9.5
2017-Nov-15 14:00N 32°35' W 079°33'  
Track history (hours):
 
Tides and Currents Weather Stations Pressure Air Temp Water Temp Dewpoint Dewpoint Depression Visibility Wind Speed Wind Dir Waves Ship Positions

Orient Delivery

Last reported at 2017-Nov-19 13:38 UTC. Time now 2017-Nov-21 17:29 UTC.
Position N 31°54' W 079°56'.

Length 183 m; draft 6.1 m.

Type: Cargo ship. MMSI: 209745000.

Date/timePositionNaut miles runAvg speedWind from/ knotsBaromVisibWave heightAir tempDewpointWater temp
2017-Nov-19 13:38N 31°54' W 079°56'1 5.6
2017-Nov-19 13:26N 31°54' W 079°55'2 5.0
2017-Nov-19 13:00N 31°56' W 079°53'3 4.7
2017-Nov-19 12:29N 31°57' W 079°51'  
2017-Nov-16 14:14N 32°53' W 079°58'0 0.0
2017-Nov-16 13:59N 32°53' W 079°58'0 0.0
2017-Nov-16 13:29N 32°53' W 079°58'0 0.0
2017-Nov-16 12:59N 32°53' W 079°58'0 0.0
2017-Nov-16 12:29N 32°53' W 079°58'0 0.0
2017-Nov-16 11:29N 32°53' W 079°58'0 0.0
2017-Nov-16 10:59N 32°53' W 079°58'0 0.0
2017-Nov-16 10:26N 32°53' W 079°58'0 0.0
2017-Nov-16 09:56N 32°53' W 079°58'0 0.0
2017-Nov-16 09:26N 32°53' W 079°58'0 0.0
2017-Nov-16 08:59N 32°53' W 079°58'0 0.0
2017-Nov-16 08:29N 32°53' W 079°58'0 0.0
2017-Nov-16 07:59N 32°53' W 079°58'0 0.0
2017-Nov-16 07:29N 32°53' W 079°58'0 0.0
2017-Nov-16 06:59N 32°53' W 079°58'0 0.0
2017-Nov-16 06:29N 32°53' W 079°58'0 0.0
2017-Nov-16 05:59N 32°53' W 079°58'0 0.0
2017-Nov-16 05:29N 32°53' W 079°58'0 0.0
2017-Nov-16 04:59N 32°53' W 079°58'0 0.0
2017-Nov-16 04:29N 32°53' W 079°58'0 0.0
2017-Nov-16 03:59N 32°53' W 079°58'0 0.0
2017-Nov-16 03:29N 32°53' W 079°58'0 0.0
2017-Nov-16 02:59N 32°53' W 079°58'0 0.0
2017-Nov-16 02:29N 32°53' W 079°58'0 0.0
2017-Nov-16 01:59N 32°53' W 079°58'0 0.0
2017-Nov-16 01:26N 32°53' W 079°58'0 0.0
2017-Nov-16 00:59N 32°53' W 079°58'0 0.0
2017-Nov-15 20:50N 32°53' W 079°58'0 0.0
2017-Nov-15 20:29N 32°53' W 079°58'0 0.0
2017-Nov-15 19:59N 32°53' W 079°58'0 0.0
2017-Nov-15 19:29N 32°53' W 079°58'0 0.0
2017-Nov-15 18:59N 32°53' W 079°58'0 0.0
2017-Nov-15 18:29N 32°53' W 079°58'0 0.0
2017-Nov-15 17:59N 32°53' W 079°58'0 0.0
2017-Nov-15 17:29N 32°53' W 079°58'0 0.0
2017-Nov-15 17:00N 32°53' W 079°58'2 4.8
2017-Nov-15 16:30N 32°51' W 079°56'4 8.6
2017-Nov-15 16:00N 32°47' W 079°55'1811.0
2017-Nov-15 14:21N 32°37' W 079°36'3 9.5
2017-Nov-15 14:00N 32°35' W 079°33'  

Dump ship's entire track history